Have a Safe July 4th! 

Flight Track Log - Related Links

Times and Time Zones

All times are in EDT time to prevent confusion due to time zone crossing. See the FIN666 flight status page for this flight to view local times or setup timezone preferences in your user account.

Time Position Orientation Groundspeed Altitude Reporting Facility
EDT Latitude Longitude Course Direction KTS MPH feet Rate Location/Type
Wed 07:30:00 AM 55.8166 13.0661 49° Northeast  Level Estimated
Wed 07:31:00 AM 55.8825 13.2038 49° Northeast  Level Estimated
Wed 07:32:00 AM 55.9483 13.3419 50° Northeast  Level Estimated
Wed 07:33:00 AM 56.0139 13.4805 50° Northeast  Level Estimated
Wed 07:34:00 AM 56.0794 13.6195 50° Northeast  Level Estimated
Wed 07:35:00 AM 56.1447 13.7591 50° Northeast  Level Estimated
Wed 07:36:00 AM 56.2133 13.9065 50° Northeast  Level Estimated
Wed 07:37:00 AM 56.2817 14.0545 50° Northeast  Level Estimated
Wed 07:38:00 AM 56.3500 14.2031 50° Northeast  Level Estimated
Wed 07:39:00 AM 56.4180 14.3521 50° Northeast  Level Estimated
Wed 07:40:00 AM 56.4860 14.5018 51° Northeast  Level Estimated
Wed 07:41:00 AM 56.5537 14.6519 51° Northeast  Level Estimated
Wed 07:42:00 AM 56.6212 14.8026 51° Northeast  Level Estimated
Wed 07:43:00 AM 56.6886 14.9538 51° Northeast  Level Estimated
Wed 07:44:00 AM 56.7557 15.1056 51° Northeast  Level Estimated
Wed 07:45:00 AM 56.8227 15.2579 51° Northeast  Level Estimated
Wed 07:46:00 AM 56.8895 15.4107 51° Northeast  Level Estimated
Wed 07:47:00 AM 56.9561 15.5641 51° Northeast  Level Estimated
Wed 07:48:00 AM 57.0226 15.7181 52° Northeast  Level Estimated
Wed 07:49:00 AM 57.0888 15.8725 52° Northeast  Level Estimated
Wed 07:50:00 AM 57.1549 16.0276 52° Northeast  Level Estimated
Wed 07:51:00 AM 57.2207 16.1832 52° Northeast  Level Estimated
Wed 07:52:00 AM 57.2864 16.3393 52° Northeast  Level Estimated
Wed 07:53:00 AM 57.3518 16.4961 52° Northeast  Level Estimated
Wed 07:54:00 AM 57.4171 16.6533 52° Northeast  Level Estimated
Wed 07:55:00 AM 57.4831 16.8133 52° Northeast  Level Estimated
Wed 07:56:00 AM 57.5488 16.9739 53° Northeast  Level Estimated
Wed 07:57:00 AM 57.6143 17.1350 53° Northeast  Level Estimated
Wed 07:58:00 AM 57.6797 17.2967 53° Northeast  Level Estimated
Wed 07:59:00 AM 57.7448 17.4590 53° Northeast  Level Estimated
Wed 08:00:00 AM 57.8097 17.6219 53° Northeast  Level Estimated
Wed 08:01:00 AM 57.8745 17.7853 53° Northeast  Level Estimated
Wed 08:02:00 AM 57.9389 17.9494 53° Northeast  Level Estimated
Wed 08:03:00 AM 58.0032 18.1140 54° Northeast  Level Estimated
Wed 08:04:00 AM 58.0673 18.2792 54° Northeast  Level Estimated
Wed 08:05:00 AM 58.1312 18.4451 54° Northeast  Level Estimated
Wed 08:06:00 AM 58.1948 18.6115 54° Northeast  Level Estimated
Wed 08:07:00 AM 58.2583 18.7785 54° Northeast  Level Estimated
Wed 08:08:00 AM 58.3215 18.9461 54° Northeast  Level Estimated
Wed 08:09:00 AM 58.3845 19.1143 54° Northeast  Level Estimated
Wed 08:10:00 AM 58.4472 19.2831 55° Northeast  Level Estimated
Wed 08:11:00 AM 58.5098 19.4526 55° Northeast  Level Estimated
Wed 08:12:00 AM 58.5721 19.6226 55° Northeast  Level Estimated
Wed 08:13:00 AM 58.6342 19.7932 55° Northeast  Level Estimated
Wed 08:14:00 AM 58.6961 19.9644 55° Northeast  Level Estimated
Wed 08:15:00 AM 58.7577 20.1363 55° Northeast  Level Estimated
Wed 08:16:00 AM 58.8191 20.3087 55° Northeast  Level Estimated
Wed 08:17:00 AM 58.8803 20.4818 56° Northeast  Level Estimated
Wed 08:18:00 AM 58.9413 20.6555 56° Northeast  Level Estimated
Wed 08:19:00 AM 59.0020 20.8298 56° Northeast  Level Estimated
Wed 08:20:00 AM 59.0625 21.0047 56° Northeast  Level Estimated
Wed 08:21:00 AM 59.1227 21.1802 56° Northeast  Level Estimated
Wed 08:22:00 AM 59.1827 21.3563 56° Northeast  Level Estimated
Wed 08:23:00 AM 59.2425 21.5331 56° Northeast  Level Estimated
Wed 08:24:00 AM 59.3020 21.7104 57° Northeast  Level Estimated
Wed 08:25:00 AM 59.3613 21.8884 57° Northeast  Level Estimated
Wed 08:26:00 AM 59.4204 22.0670 57° Northeast  Level Estimated
Wed 08:27:00 AM 59.4792 22.2463 57° Northeast  Level Estimated
Wed 08:28:00 AM 59.5377 22.4261 57° Northeast  Level Estimated
Wed 08:29:00 AM 59.5960 22.6066 57° Northeast  Level Estimated
Wed 08:30:00 AM 59.6541 22.7877 58° Northeast  Level Estimated
Wed 08:31:00 AM 59.7119 22.9695 58° Northeast  Level Estimated
Wed 08:32:00 AM 59.7695 23.1518 58° Northeast  Level Estimated
Wed 08:33:00 AM 59.8268 23.3348 58° Northeast  Level Estimated
Wed 08:34:00 AM 59.8838 23.5184 58° Northeast  Level Estimated
Wed 08:35:00 AM 59.9406 23.7027 58° Northeast  Level Estimated
Wed 08:36:00 AM 59.9971 23.8876 58° Northeast  Level Estimated
Wed 08:37:00 AM 60.0534 24.0731 59° Northeast  Level Estimated
Wed 08:38:00 AM 60.1094 24.2593 59° Northeast  Level Estimated
Wed 08:39:00 AM 60.1651 24.4460 59° Northeast  Level Estimated
Wed 08:40:00 AM 60.2206 24.6334 59° Northeast  Level Estimated
Wed 08:41:00 AM 60.2759 24.8215 59° Northeast  Level Estimated
Wed 08:42:00 AM 60.3172 24.9633 59° Northeast  Level Estimated
Wed 08:43:00 AM 60.3172 24.9633 37° Northeast  Level Estimated
Wed 08:44:00 AM 60.3172 24.9633 37° Northeast  Level Estimated
Wed 08:45:00 AM 60.3172 24.9633 37° Northeast  Level Estimated
Wed 08:46:00 AM 60.3172 24.9633 37° Northeast  Level Estimated
Wed 08:47:00 AM 60.3172 24.9633 37° Northeast  Level Estimated
Wed 08:48:00 AM 60.3172 24.9633 37° Northeast  Level Estimated
Wed 08:49:00 AM 60.3172 24.9633 37° Northeast  Level Estimated
Wed 08:50:00 AM 60.3172 24.9633 37° Northeast  Level Estimated
Wed 08:51:00 AM 60.3172 24.9633 37° Northeast  Level Estimated
Wed 08:52:00 AM 60.3172 24.9633 37° Northeast  Level Estimated
Wed 08:53:00 AM 60.3172 24.9633 37° Northeast  Level Estimated
Wed 08:54:00 AM 60.3172 24.9633 37° Northeast  Level Estimated

Login

Don't have an account? Register now (free) for customized features, flight alerts, and more!